Latest Weather Observations for Melville Water

IDW60901

Issued at 5:01 am WST Wednesday 20 November 2019 (issued every 10 minutes, with the page automatically refreshed every 10 minutes)

About weather observations | Map of Perth area stations | Latest observations for Perth area | Other Formats
Station Details ID: 009091 Name: INNER DOLPHIN PYLON Lat: -31.99 Lon: 115.83 Height: 0.0 m
Data from the previous 72 hours. | See also: Recent months at Melville Water
Date/Time
WST
Temp
°C
App
Temp
°C
Dew
Point
°C
Rel
Hum
%
Delta-T
°C
Wind Press
QNH
hPa
Press
MSL
hPa
Rain since
9am
mm
Dir  Spd
km/h
Gust
km/h
Spd
kts
Gust
kts
20/05:00am - - - - - SW 33 48 18 26 - - -
20/04:30am - - - - - SW 43 63 23 34 - - -
20/04:00am - - - - - SW 35 54 19 29 - - -
20/03:57am - - - - - SW 33 54 18 29 - - -
20/03:30am - - - - - WSW 32 44 17 24 - - -
20/03:00am - - - - - WSW 28 37 15 20 - - -
20/02:30am - - - - - SW 30 39 16 21 - - -
20/02:00am - - - - - SSW 26 35 14 19 - - -
20/01:43am - - - - - WSW 33 46 18 25 - - -
20/01:37am - - - - - WSW 28 46 15 25 - - -
20/01:30am - - - - - WSW 26 33 14 18 - - -
20/01:00am - - - - - WSW 24 35 13 19 - - -
20/12:30am - - - - - SW 26 33 14 18 - - -
20/12:00am - - - - - SW 28 33 15 18 - - -
 
Date/Time
WST
Temp
°C
App
Temp
°C
Dew
Point
°C
Rel
Hum
%
Delta-T
°C
Wind Press
QNH
hPa
Press
MSL
hPa
Rain since
9am
mm
Dir  Spd
km/h
Gust
km/h
Spd
kts
Gust
kts
19/11:30pm - - - - - SW 24 30 13 16 - - -
19/11:00pm - - - - - SW 26 33 14 18 - - -
19/10:30pm - - - - - SW 28 39 15 21 - - -
19/10:00pm - - - - - SW 30 39 16 21 - - -
19/09:30pm - - - - - SW 28 35 15 19 - - -
19/09:00pm - - - - - SW 32 37 17 20 - - -
19/08:30pm - - - - - SW 32 39 17 21 - - -
19/08:00pm - - - - - SW 30 39 16 21 - - -
19/07:30pm - - - - - SW 26 33 14 18 - - -
19/07:00pm - - - - - SSW 24 30 13 16 - - -
19/06:30pm - - - - - SW 24 33 13 18 - - -
19/06:00pm - - - - - SSW 24 33 13 18 - - -
19/05:30pm - - - - - SW 28 33 15 18 - - -
19/05:00pm - - - - - SSW 30 39 16 21 - - -
19/04:30pm - - - - - SSW 33 43 18 23 - - -
19/04:00pm - - - - - SSW 33 41 18 22 - - -
19/03:30pm - - - - - SW 33 46 18 25 - - -
19/03:00pm - - - - - SW 33 43 18 23 - - -
19/02:30pm - - - - - SW 35 46 19 25 - - -
19/02:00pm - - - - - SW 35 46 19 25 - - -
19/01:30pm - - - - - SW 33 43 18 23 - - -
19/01:00pm - - - - - SW 35 44 19 24 - - -
19/12:30pm - - - - - SW 28 35 15 19 - - -
19/12:00pm - - - - - SW 28 35 15 19 - - -
19/11:30am - - - - - WSW 24 32 13 17 - - -
19/11:00am - - - - - SW 24 30 13 16 - - -
19/10:30am - - - - - SW 17 22 9 12 - - -
19/10:00am - - - - - SW 19 24 10 13 - - -
19/09:30am - - - - - WSW 19 22 10 12 - - -
19/09:00am - - - - - SW 15 19 8 10 - - -
19/08:30am - - - - - SW 2 7 1 4 - - -
19/08:00am - - - - - SE 2 6 1 3 - - -
19/07:30am - - - - - SSE 4 9 2 5 - - -
19/07:00am - - - - - ESE 7 11 4 6 - - -
19/06:30am - - - - - SE 13 17 7 9 - - -
19/06:00am - - - - - SE 13 17 7 9 - - -
19/05:30am - - - - - SE 13 17 7 9 - - -
19/05:00am - - - - - SSE 15 17 8 9 - - -
19/04:30am - - - - - SSE 13 17 7 9 - - -
19/04:00am - - - - - SSE 17 22 9 12 - - -
19/03:30am - - - - - SSE 17 20 9 11 - - -
19/03:00am - - - - - SE 17 22 9 12 - - -
19/02:30am - - - - - SE 15 19 8 10 - - -
19/02:00am - - - - - SE 13 17 7 9 - - -
19/01:30am - - - - - SE 17 20 9 11 - - -
19/01:00am - - - - - S 19 22 10 12 - - -
19/12:30am - - - - - SSW 15 19 8 10 - - -
19/12:00am - - - - - SSW 11 13 6 7 - - -
 
Date/Time
WST
Temp
°C
App
Temp
°C
Dew
Point
°C
Rel
Hum
%
Delta-T
°C
Wind Press
QNH
hPa
Press
MSL
hPa
Rain since
9am
mm
Dir  Spd
km/h
Gust
km/h
Spd
kts
Gust
kts
18/11:30pm - - - - - SSW 13 17 7 9 - - -
18/11:00pm - - - - - SSW 13 15 7 8 - - -
18/10:30pm - - - - - SW 11 15 6 8 - - -
18/10:00pm - - - - - SW 11 15 6 8 - - -
18/09:30pm - - - - - SW 15 19 8 10 - - -
18/09:00pm - - - - - SW 13 15 7 8 - - -
18/08:30pm - - - - - SSW 13 17 7 9 - - -
18/08:00pm - - - - - SSW 15 19 8 10 - - -
18/07:30pm - - - - - SSW 20 24 11 13 - - -
18/07:00pm - - - - - SSW 19 22 10 12 - - -
18/06:30pm - - - - - SSW 20 28 11 15 - - -
18/06:00pm - - - - - SSW 28 35 15 19 - - -
18/05:30pm - - - - - SSW 30 39 16 21 - - -
18/05:00pm - - - - - SSW 28 35 15 19 - - -
18/04:30pm - - - - - SW 30 35 16 19 - - -
18/04:00pm - - - - - SSW 35 43 19 23 - - -
18/03:30pm - - - - - SSW 30 37 16 20 - - -
18/03:00pm - - - - - SW 30 37 16 20 - - -
18/02:30pm - - - - - SW 30 35 16 19 - - -
18/02:00pm - - - - - SW 28 33 15 18 - - -
18/01:30pm - - - - - SW 28 32 15 17 - - -
18/01:00pm - - - - - SW 28 32 15 17 - - -
18/12:30pm - - - - - SW 30 35 16 19 - - -
18/12:00pm - - - - - SW 28 32 15 17 - - -
18/11:30am - - - - - SW 22 28 12 15 - - -
18/11:00am - - - - - WSW 17 20 9 11 - - -
18/10:30am - - - - - WSW 7 15 4 8 - - -
18/10:00am - - - - - WSW 2 9 1 5 - - -
18/09:30am - - - - - S 4 7 2 4 - - -
18/09:00am - - - - - S 9 15 5 8 - - -
18/08:30am - - - - - SSE 9 17 5 9 - - -
18/08:00am - - - - - SSE 15 20 8 11 - - -
18/07:30am - - - - - S 17 20 9 11 - - -
18/07:00am - - - - - S 13 15 7 8 - - -
18/06:30am - - - - - SSE 13 19 7 10 - - -
18/06:00am - - - - - S 15 19 8 10 - - -
18/05:30am - - - - - S 11 15 6 8 - - -
18/05:00am - - - - - S 9 11 5 6 - - -
18/04:30am - - - - - S 7 9 4 5 - - -
18/04:00am - - - - - S 7 11 4 6 - - -
18/03:30am - - - - - S 6 9 3 5 - - -
18/03:00am - - - - - SSE 9 11 5 6 - - -
18/02:30am - - - - - S 9 11 5 6 - - -
18/02:00am - - - - - S 13 19 7 10 - - -
18/01:30am - - - - - S 17 20 9 11 - - -
18/01:00am - - - - - S 13 19 7 10 - - -
18/12:30am - - - - - S 9 13 5 7 - - -
18/12:00am - - - - - S 7 9 4 5 - - -
 
Date/Time
WST
Temp
°C
App
Temp
°C
Dew
Point
°C
Rel
Hum
%
Delta-T
°C
Wind Press
QNH
hPa
Press
MSL
hPa
Rain since
9am
mm
Dir  Spd
km/h
Gust
km/h
Spd
kts
Gust
kts
17/11:30pm - - - - - S 7 11 4 6 - - -
17/11:00pm - - - - - SSW 13 17 7 9 - - -
17/10:30pm - - - - - S 13 17 7 9 - - -
17/10:00pm - - - - - S 9 13 5 7 - - -
17/09:30pm - - - - - SSW 19 24 10 13 - - -
17/09:00pm - - - - - SSW 20 28 11 15 - - -
17/08:30pm - - - - - SSW 22 28 12 15 - - -
17/08:00pm - - - - - SSW 22 28 12 15 - - -
17/07:30pm - - - - - SSW 24 28 13 15 - - -
17/07:00pm - - - - - SSW 24 30 13 16 - - -
17/06:30pm - - - - - SSW 24 30 13 16 - - -
17/06:00pm - - - - - SW 20 26 11 14 - - -
17/05:30pm - - - - - SW 19 22 10 12 - - -
17/05:00pm - - - - - SW 22 26 12 14 - - -
17/04:30pm - - - - - SW 20 26 11 14 - - -
17/04:00pm - - - - - SW 24 28 13 15 - - -
17/03:30pm - - - - - WSW 24 28 13 15 - - -
17/03:00pm - - - - - WSW 20 26 11 14 - - -
17/02:30pm - - - - - WSW 17 20 9 11 - - -
17/02:00pm - - - - - SW 17 24 9 13 - - -
17/01:30pm - - - - - SW 15 19 8 10 - - -
17/01:00pm - - - - - WSW 19 22 10 12 - - -
17/12:30pm - - - - - SW 22 26 12 14 - - -
17/12:00pm - - - - - SW 24 28 13 15 - - -
17/11:30am - - - - - SW 22 28 12 15 - - -
17/11:00am - - - - - WSW 24 30 13 16 - - -
17/10:30am - - - - - SW 17 20 9 11 - - -
17/10:00am - - - - - WSW 11 15 6 8 - - -
17/09:30am - - - - - SSW 6 9 3 5 - - -
17/09:00am - - - - - CALM 0 4 0 2 - - -
17/08:30am - - - - - SSE 4 6 2 3 - - -
17/08:00am - - - - - CALM 0 4 0 2 - - -
17/07:30am - - - - - E 7 11 4 6 - - -
17/07:00am - - - - - E 6 9 3 5 - - -
17/06:30am - - - - - ESE 6 11 3 6 - - -
17/06:00am - - - - - NW 6 9 3 5 - - -
17/05:30am - - - - - CALM 0 0 0 0 - - -

Latest Capital City Observations: Canberra | Sydney | Melbourne | Brisbane | Adelaide | Perth | Hobart | Darwin

Other formats

Comma delimited format used in spreadsheet applications
http://www.bom.gov.au/fwo/IDW60901/IDW60901.95620.axf

JavaScript Object Notation format (JSON) in row-major order
http://www.bom.gov.au/fwo/IDW60901/IDW60901.95620.json

Data quality

Most of these data are generated automatically and are frequently updated. Quality checks on data are not normally performed. It is possible for incorrect values to appear. Refer to information at About Latest Weather Observations and please check the disclaimer before using these data.